createdAt,value
2022-10-19T00:16:54.551Z,91.5
2022-10-19T00:45:35.929Z,90.06
2022-10-19T01:14:18.128Z,90.19
2022-10-19T01:43:00.509Z,91.26
2022-10-19T02:11:35.747Z,94.26
2022-10-19T02:40:19.678Z,95.23
2022-10-19T03:09:04.007Z,96.6
2022-10-19T03:37:44.303Z,95.97
2022-10-19T04:06:22.953Z,95.23
2022-10-19T04:34:50.236Z,95.07
2022-10-19T05:03:37.753Z,96.12
2022-10-19T05:31:53.499Z,98.09
2022-10-19T06:00:22.702Z,99.51
2022-10-19T06:28:44.514Z,100
2022-10-19T06:57:14.227Z,99.2
2022-10-19T07:25:50.274Z,99.63
2022-10-19T07:54:19.474Z,98.27
2022-10-19T08:22:59.804Z,97.33
2022-10-19T08:51:14.259Z,96.97
2022-10-19T09:19:48.324Z,95.14
2022-10-19T09:48:16.867Z,94.94
2022-10-19T10:16:37.894Z,91.29
2022-10-19T10:45:17.487Z,89.77
2022-10-19T11:13:56.129Z,90.21
2022-10-19T11:42:28.520Z,89.63
2022-10-19T12:11:06.016Z,87.33
2022-10-19T12:39:40.218Z,84.62
2022-10-19T13:08:20.432Z,80.76
2022-10-19T13:37:00.096Z,79.31
2022-10-19T14:05:32.701Z,79.2
2022-10-19T14:34:07.414Z,77.59
2022-10-19T15:02:42.558Z,77.62
2022-10-19T15:31:21.603Z,75.6
2022-10-19T15:59:54.598Z,75.67
2022-10-19T16:28:36.098Z,77.9
2022-10-19T16:57:25.892Z,80.33
2022-10-19T17:26:11.185Z,81.24
2022-10-19T17:55:11.970Z,81.57
2022-10-19T18:23:19.063Z,82.85
2022-10-19T18:52:06.036Z,87.67
2022-10-19T19:20:41.527Z,89.45
2022-10-19T19:49:18.530Z,91.61
2022-10-19T20:18:16.618Z,91.29
2022-10-19T20:47:02.645Z,91.18
2022-10-19T21:16:06.007Z,90.28
2022-10-19T21:45:01.260Z,90.37
2022-10-19T22:13:17.441Z,90.62
2022-10-19T22:42:16.914Z,92.75
2022-10-19T23:10:34.533Z,94.86
2022-10-19T23:39:20.855Z,95.72
